createdAt,value
2019-04-03T00:00:12.608Z,23.47
2019-04-03T00:02:40.819Z,20.90
2019-04-03T00:05:09.294Z,25.08
2019-04-03T00:07:37.522Z,27.52
2019-04-03T00:10:08.736Z,25.50
2019-04-03T00:12:37.350Z,25.55
2019-04-03T00:15:06.142Z,26.00
2019-04-03T00:17:34.373Z,26.75
2019-04-03T00:20:03.062Z,26.97
2019-04-03T00:22:31.402Z,24.82
2019-04-03T00:24:59.608Z,22.50
2019-04-03T00:27:28.036Z,26.17
2019-04-03T00:29:56.284Z,26.40
2019-04-03T00:32:24.646Z,29.30
2019-04-03T00:34:53.466Z,24.60
2019-04-03T00:37:23.288Z,26.62
2019-04-03T00:39:53.868Z,28.23
2019-04-03T00:42:24.620Z,25.48
2019-04-03T00:44:54.694Z,24.80
2019-04-03T00:47:25.119Z,23.02
2019-04-03T00:49:53.198Z,27.48
2019-04-03T00:52:21.582Z,26.23
2019-04-03T00:54:49.833Z,25.77
2019-04-03T00:57:18.069Z,27.70
2019-04-03T00:59:46.291Z,27.82
2019-04-03T01:02:16.435Z,26.82
2019-04-03T01:04:44.499Z,28.27
2019-04-03T01:07:12.720Z,27.25
2019-04-03T01:09:41.670Z,27.62
2019-04-03T01:12:09.898Z,27.50
2019-04-03T01:14:38.134Z,26.55
2019-04-03T01:17:06.367Z,28.77
2019-04-03T01:19:36.397Z,28.90
2019-04-03T01:22:05.639Z,26.27
2019-04-03T01:24:34.635Z,24.52
2019-04-03T01:27:02.871Z,26.65
2019-04-03T01:29:31.101Z,28.52
2019-04-03T01:31:59.335Z,27.77
2019-04-03T01:34:27.619Z,27.50
2019-04-03T01:36:55.872Z,24.45
2019-04-03T01:39:24.105Z,28.20
2019-04-03T01:41:52.436Z,28.42
2019-04-03T01:44:20.661Z,28.35
2019-04-03T01:46:48.968Z,23.73
2019-04-03T01:49:17.213Z,24.92
2019-04-03T01:51:45.478Z,21.42
2019-04-03T01:54:13.728Z,25.57
2019-04-03T01:56:42.068Z,27.65
2019-04-03T01:59:10.303Z,26.27
2019-04-03T02:01:39.095Z,26.80
2019-04-03T02:04:07.671Z,27.48
2019-04-03T02:06:35.890Z,27.77
2019-04-03T02:09:06.166Z,24.85
2019-04-03T02:11:34.392Z,26.45
2019-04-03T02:14:02.623Z,23.52
2019-04-03T02:16:30.848Z,21.93
2019-04-03T02:18:59.104Z,23.60
2019-04-03T02:21:28.287Z,22.30
2019-04-03T02:23:56.663Z,22.75
2019-04-03T02:26:24.895Z,23.18
2019-04-03T02:28:53.176Z,22.35
2019-04-03T02:31:21.383Z,24.40
2019-04-03T02:33:50.531Z,25.20
2019-04-03T02:36:18.914Z,25.17
2019-04-03T02:38:47.125Z,24.23
2019-04-03T02:41:15.664Z,21.90
2019-04-03T02:43:46.289Z,20.62
2019-04-03T02:46:14.185Z,23.73
2019-04-03T02:48:42.420Z,26.65
2019-04-03T02:51:10.701Z,27.55
2019-04-03T02:53:38.970Z,24.65
2019-04-03T02:56:07.482Z,23.60
2019-04-03T02:58:37.979Z,26.07
2019-04-03T03:01:07.323Z,21.42
2019-04-03T03:03:36.293Z,22.45
2019-04-03T03:06:04.544Z,25.50
2019-04-03T03:08:32.761Z,26.65
2019-04-03T03:11:02.517Z,22.87
2019-04-03T03:13:34.634Z,24.00
2019-04-03T03:16:01.567Z,24.10
2019-04-03T03:18:30.016Z,21.80
2019-04-03T03:20:58.634Z,24.32
2019-04-03T03:23:26.974Z,22.58
2019-04-03T03:25:55.174Z,21.80
2019-04-03T03:28:23.706Z,21.95
2019-04-03T03:30:59.937Z,21.95
2019-04-03T03:33:32.640Z,21.50
2019-04-03T03:35:52.310Z,22.45
2019-04-03T03:38:20.931Z,22.82
2019-04-03T03:40:49.435Z,19.45
2019-04-03T03:43:17.990Z,19.80
2019-04-03T03:45:46.241Z,19.15
2019-04-03T03:48:14.454Z,20.95
2019-04-03T03:50:42.681Z,22.35
2019-04-03T03:53:12.681Z,21.55
2019-04-03T03:55:41.318Z,21.77
2019-04-03T03:58:12.468Z,25.37
2019-04-03T04:00:39.813Z,20.62
2019-04-03T04:03:10.094Z,21.75
2019-04-03T04:05:38.365Z,18.55
2019-04-03T04:08:10.628Z,23.85
2019-04-03T04:10:37.237Z,21.42
2019-04-03T04:13:05.981Z,23.85
2019-04-03T04:15:34.376Z,23.02
2019-04-03T04:18:03.362Z,24.72
2019-04-03T04:20:31.629Z,28.87
2019-04-03T04:23:00.820Z,26.55
2019-04-03T04:25:30.589Z,21.48
2019-04-03T04:27:59.480Z,22.95
2019-04-03T04:30:27.923Z,21.37
2019-04-03T04:32:56.618Z,21.45
2019-04-03T04:35:25.186Z,22.82
2019-04-03T04:37:55.295Z,24.82
2019-04-03T04:40:23.480Z,19.27
2019-04-03T04:42:51.784Z,24.43
2019-04-03T04:45:20.028Z,25.82
2019-04-03T04:47:48.248Z,25.80
2019-04-03T04:50:24.289Z,20.20
2019-04-03T04:52:51.474Z,22.62
2019-04-03T04:55:19.708Z,22.25
2019-04-03T04:57:48.042Z,21.60
2019-04-03T05:00:16.400Z,20.15
2019-04-03T05:02:44.596Z,21.15
2019-04-03T05:05:12.983Z,23.05
2019-04-03T05:07:41.283Z,26.85
2019-04-03T05:10:09.519Z,22.13
2019-04-03T05:12:39.122Z,19.15
2019-04-03T05:15:08.088Z,20.43
2019-04-03T05:17:36.351Z,21.17
2019-04-03T05:20:05.253Z,27.70
2019-04-03T05:22:33.571Z,19.05
2019-04-03T05:25:02.093Z,23.35
2019-04-03T05:27:33.362Z,21.75
2019-04-03T05:30:00.413Z,20.40
2019-04-03T05:32:28.916Z,20.08
2019-04-03T05:34:57.157Z,23.70
2019-04-03T05:37:25.589Z,22.70
2019-04-03T05:39:55.629Z,26.90
2019-04-03T05:42:24.073Z,26.90
2019-04-03T05:44:52.319Z,24.35
2019-04-03T05:47:20.634Z,20.37
2019-04-03T05:49:51.075Z,19.20
2019-04-03T05:52:19.343Z,22.62
2019-04-03T05:54:47.660Z,26.07
2019-04-03T05:57:16.174Z,27.82
2019-04-03T05:59:44.658Z,24.92
2019-04-03T06:02:16.178Z,26.60
2019-04-03T06:04:42.988Z,24.77
2019-04-03T06:07:11.266Z,25.82
2019-04-03T06:09:39.495Z,24.98
2019-04-03T06:12:09.071Z,26.15
2019-04-03T06:14:37.758Z,24.07
2019-04-03T06:17:05.980Z,22.55
2019-04-03T06:19:35.377Z,22.52
2019-04-03T06:22:04.183Z,22.98
2019-04-03T06:24:32.454Z,21.45
2019-04-03T06:27:00.712Z,23.20
2019-04-03T06:29:29.149Z,24.35
2019-04-03T06:31:58.262Z,26.25
2019-04-03T06:34:26.909Z,27.27
2019-04-03T06:36:55.208Z,26.73
2019-04-03T06:39:24.184Z,24.72
2019-04-03T06:41:52.531Z,25.05
2019-04-03T06:44:22.533Z,23.45
2019-04-03T06:46:53.679Z,24.18
2019-04-03T06:49:21.627Z,23.60
2019-04-03T06:51:50.020Z,24.15
2019-04-03T06:54:18.281Z,25.40
2019-04-03T06:56:46.703Z,25.65
2019-04-03T06:59:16.476Z,25.52
2019-04-03T07:01:45.008Z,24.75
2019-04-03T07:04:13.441Z,26.80
2019-04-03T07:06:44.300Z,24.77
2019-04-03T07:09:22.067Z,25.00
2019-04-03T07:11:43.218Z,24.05
2019-04-03T07:14:11.824Z,21.37
2019-04-03T07:16:40.073Z,24.25
2019-04-03T07:19:08.669Z,21.35
2019-04-03T07:21:37.318Z,27.25
2019-04-03T07:24:05.559Z,27.13
2019-04-03T07:26:35.749Z,25.45
2019-04-03T07:29:04.080Z,24.30
2019-04-03T07:31:32.318Z,21.80
2019-04-03T07:34:02.996Z,25.15
2019-04-03T07:36:30.506Z,25.08
2019-04-03T07:38:59.038Z,19.48
2019-04-03T07:41:27.994Z,25.88
2019-04-03T07:43:56.677Z,23.18
2019-04-03T07:46:26.189Z,24.98
2019-04-03T07:48:54.652Z,23.35
2019-04-03T07:51:23.051Z,20.72
2019-04-03T07:53:52.955Z,19.05
2019-04-03T07:56:21.381Z,23.55
2019-04-03T07:58:49.609Z,21.30
2019-04-03T08:01:18.779Z,24.00
2019-04-03T08:03:47.928Z,19.87
2019-04-03T08:06:16.148Z,22.95
2019-04-03T08:08:45.206Z,18.23
2019-04-03T08:11:15.204Z,23.98
2019-04-03T08:13:43.605Z,23.18
2019-04-03T08:16:13.780Z,21.17
2019-04-03T08:18:42.205Z,19.98
2019-04-03T08:21:10.816Z,19.87
2019-04-03T08:23:39.240Z,20.37
2019-04-03T08:26:07.460Z,18.90
2019-04-03T08:28:44.833Z,17.98
2019-04-03T08:31:13.418Z,25.17
2019-04-03T08:33:43.010Z,23.42
2019-04-03T08:36:23.136Z,16.23
2019-04-03T08:38:43.862Z,22.48
2019-04-03T08:41:11.139Z,24.55
2019-04-03T08:43:39.465Z,24.02
2019-04-03T08:46:09.765Z,23.27
2019-04-03T08:48:37.662Z,22.22
2019-04-03T08:51:06.105Z,20.88
2019-04-03T08:53:34.348Z,20.77
2019-04-03T08:56:02.589Z,21.62
2019-04-03T08:58:30.842Z,20.27
2019-04-03T09:00:59.361Z,20.08
2019-04-03T09:03:27.739Z,19.25
2019-04-03T09:05:55.960Z,20.00
2019-04-03T09:08:24.694Z,21.00
2019-04-03T09:10:54.172Z,19.07
2019-04-03T09:13:23.986Z,20.32
2019-04-03T09:15:52.330Z,19.52
2019-04-03T09:18:21.967Z,17.57
2019-04-03T09:20:50.337Z,21.25
2019-04-03T09:23:18.646Z,21.52
2019-04-03T09:25:47.189Z,20.30
2019-04-03T09:28:15.495Z,21.37
2019-04-03T09:30:43.756Z,21.77
2019-04-03T09:33:13.640Z,22.70
2019-04-03T09:35:42.989Z,19.02
2019-04-03T09:38:11.800Z,22.87
2019-04-03T09:40:40.033Z,20.00
2019-04-03T09:43:08.287Z,23.73
2019-04-03T09:45:36.637Z,25.52
2019-04-03T09:48:06.119Z,27.85
2019-04-03T09:50:34.575Z,29.00
2019-04-03T09:53:02.913Z,28.77
2019-04-03T09:55:35.760Z,28.95
2019-04-03T09:58:03.329Z,33.35
2019-04-03T10:00:31.241Z,26.60
2019-04-03T10:02:59.616Z,31.73
2019-04-03T10:05:28.947Z,33.55
2019-04-03T10:07:58.320Z,34.00
2019-04-03T10:10:26.930Z,32.40
2019-04-03T10:12:55.348Z,36.58
2019-04-03T10:15:23.848Z,36.03
2019-04-03T10:17:52.223Z,34.50
2019-04-03T10:20:21.227Z,36.40
2019-04-03T10:22:49.564Z,33.85
2019-04-03T10:25:18.331Z,34.95
2019-04-03T10:27:46.811Z,34.98
2019-04-03T10:30:15.361Z,35.98
2019-04-03T10:32:43.650Z,33.18
2019-04-03T10:35:11.966Z,35.70
2019-04-03T10:37:40.234Z,30.85
2019-04-03T10:40:10.257Z,31.97
2019-04-03T10:42:39.172Z,31.80
2019-04-03T10:45:08.173Z,34.27
2019-04-03T10:47:42.061Z,31.27
2019-04-03T10:50:07.280Z,33.02
2019-04-03T10:52:35.774Z,36.00
2019-04-03T10:55:05.802Z,32.08
2019-04-03T10:57:35.350Z,33.28
2019-04-03T11:00:06.644Z,32.00
2019-04-03T11:02:35.487Z,31.68
2019-04-03T11:05:06.107Z,30.25
2019-04-03T11:07:34.728Z,31.60
2019-04-03T11:10:03.469Z,29.52
2019-04-03T11:12:32.480Z,28.95
2019-04-03T11:15:00.863Z,30.12
2019-04-03T11:17:29.359Z,27.82
2019-04-03T11:19:58.002Z,27.82
2019-04-03T11:22:26.236Z,22.30
2019-04-03T11:25:18.750Z,25.88
2019-04-03T11:27:47.424Z,26.55
2019-04-03T11:30:18.736Z,28.30
2019-04-03T11:32:45.687Z,24.47
2019-04-03T11:35:14.380Z,27.62
2019-04-03T11:37:42.743Z,28.20
2019-04-03T11:40:11.242Z,27.50
2019-04-03T11:42:39.473Z,27.95
2019-04-03T11:45:07.972Z,27.37
2019-04-03T11:47:36.541Z,28.77
2019-04-03T11:50:08.037Z,25.90
2019-04-03T11:52:36.376Z,27.73
2019-04-03T11:55:10.083Z,27.90
2019-04-03T11:57:36.486Z,26.35
2019-04-03T12:00:13.333Z,26.00
2019-04-03T12:02:44.009Z,25.75
2019-04-03T12:05:13.173Z,29.07
2019-04-03T12:07:42.714Z,29.05
2019-04-03T12:10:11.319Z,27.20
2019-04-03T12:12:40.174Z,24.10
2019-04-03T12:15:09.719Z,25.68
2019-04-03T12:17:38.878Z,26.60
2019-04-03T12:20:09.173Z,24.85
2019-04-03T12:22:37.913Z,22.22
2019-04-03T12:25:06.313Z,24.05
2019-04-03T12:27:36.052Z,23.75
2019-04-03T12:30:07.237Z,19.42
2019-04-03T12:32:38.519Z,20.62
2019-04-03T12:35:08.838Z,21.15
2019-04-03T12:37:37.048Z,15.28
2019-04-03T12:40:08.751Z,19.00
2019-04-03T12:42:37.021Z,16.75
2019-04-03T12:45:05.787Z,15.65
2019-04-03T12:47:34.016Z,13.75
2019-04-03T12:50:02.301Z,17.42
2019-04-03T12:52:31.061Z,16.25
2019-04-03T12:54:59.701Z,16.35
2019-04-03T12:57:28.103Z,17.82
2019-04-03T12:59:56.976Z,16.90
2019-04-03T13:02:25.786Z,13.98
2019-04-03T13:04:54.194Z,14.38
2019-04-03T13:07:23.015Z,16.60
2019-04-03T13:09:51.519Z,14.83
2019-04-03T13:12:22.075Z,15.58
2019-04-03T13:14:50.094Z,14.98
2019-04-03T13:17:18.413Z,12.10
2019-04-03T13:19:47.231Z,12.88
2019-04-03T13:22:18.130Z,12.43
2019-04-03T13:24:48.311Z,11.48
2019-04-03T13:27:16.903Z,11.75
2019-04-03T13:29:45.133Z,11.38
2019-04-03T13:32:16.204Z,11.85
2019-04-03T13:34:43.347Z,7.10
2019-04-03T13:37:11.837Z,9.85
2019-04-03T13:39:40.068Z,9.18
2019-04-03T13:42:08.386Z,7.87
2019-04-03T13:44:36.867Z,7.10
2019-04-03T13:47:07.482Z,7.03
2019-04-03T13:49:35.118Z,6.67
2019-04-03T13:52:08.300Z,7.78
2019-04-03T13:54:34.260Z,6.37
2019-04-03T13:57:02.490Z,6.60
2019-04-03T13:59:30.735Z,7.30
2019-04-03T14:01:58.964Z,6.55
2019-04-03T14:04:27.202Z,7.03
2019-04-03T14:06:55.622Z,6.95
2019-04-03T14:09:24.013Z,7.20
2019-04-03T14:11:52.520Z,7.30
2019-04-03T14:14:21.134Z,8.13
2019-04-03T14:16:49.473Z,9.10
2019-04-03T14:19:17.746Z,11.57
2019-04-03T14:21:46.232Z,12.95
2019-04-03T14:24:14.663Z,11.08
2019-04-03T14:26:45.620Z,14.00
2019-04-03T14:29:12.966Z,15.55
2019-04-03T14:31:42.395Z,16.62
2019-04-03T14:34:10.664Z,17.82
2019-04-03T14:36:39.273Z,17.35
2019-04-03T14:39:09.086Z,19.02
2019-04-03T14:41:37.540Z,22.20
2019-04-03T14:44:07.567Z,20.97
2019-04-03T14:46:36.164Z,20.43
2019-04-03T14:49:04.773Z,23.25
2019-04-03T14:51:33.143Z,22.98
2019-04-03T14:54:01.409Z,21.25
2019-04-03T14:56:30.433Z,21.70
2019-04-03T14:58:59.884Z,20.35
2019-04-03T15:01:28.581Z,19.32
2019-04-03T15:04:00.000Z,17.17
2019-04-03T15:06:27.063Z,18.30
2019-04-03T15:08:55.476Z,17.05
2019-04-03T15:11:24.119Z,16.12
2019-04-03T15:13:52.942Z,19.50
2019-04-03T15:16:21.407Z,21.05
2019-04-03T15:18:49.854Z,20.88
2019-04-03T15:21:18.188Z,17.20
2019-04-03T15:23:46.407Z,21.70
2019-04-03T15:26:14.726Z,21.00
2019-04-03T15:28:43.135Z,20.50
2019-04-03T15:31:14.312Z,19.55
2019-04-03T15:33:42.462Z,22.85
2019-04-03T15:36:10.672Z,21.45
2019-04-03T15:38:39.440Z,20.68
2019-04-03T15:41:07.993Z,21.37
2019-04-03T15:43:36.215Z,19.70
2019-04-03T15:46:04.498Z,20.20
2019-04-03T15:48:32.739Z,19.80
2019-04-03T15:51:01.040Z,20.55
2019-04-03T15:53:29.334Z,18.45
2019-04-03T15:55:57.644Z,16.48
2019-04-03T15:58:27.311Z,17.52
2019-04-03T16:00:56.134Z,15.05
2019-04-03T16:03:25.138Z,16.85
2019-04-03T16:05:53.508Z,13.88
2019-04-03T16:08:21.782Z,16.60
2019-04-03T16:10:50.069Z,14.45
2019-04-03T16:13:20.852Z,16.73
2019-04-03T16:15:48.841Z,14.68
2019-04-03T16:18:19.770Z,15.32
2019-04-03T16:20:49.053Z,15.78
2019-04-03T16:23:17.349Z,14.43
2019-04-03T16:25:48.500Z,14.18
2019-04-03T16:28:15.526Z,14.95
2019-04-03T16:30:46.468Z,14.87
2019-04-03T16:33:21.541Z,14.13
2019-04-03T16:35:46.158Z,13.72
2019-04-03T16:38:15.034Z,12.13
2019-04-03T16:40:43.658Z,12.85
2019-04-03T16:43:13.959Z,13.13
2019-04-03T16:45:42.365Z,12.75
2019-04-03T16:48:10.591Z,11.97
2019-04-03T16:50:38.849Z,12.37
2019-04-03T16:53:07.491Z,13.75
2019-04-03T16:55:36.296Z,11.43
2019-04-03T16:58:04.582Z,12.65
2019-04-03T17:00:32.814Z,11.95
2019-04-03T17:03:01.139Z,10.28
2019-04-03T17:05:29.356Z,12.95
2019-04-03T17:07:57.967Z,12.78
2019-04-03T17:10:26.213Z,12.05
2019-04-03T17:12:54.832Z,17.48
2019-04-03T17:15:23.613Z,13.13
2019-04-03T17:17:51.974Z,16.50
2019-04-03T17:20:22.370Z,10.88
2019-04-03T17:22:50.277Z,10.88
2019-04-03T17:25:18.728Z,12.70
2019-04-03T17:27:55.004Z,12.82
2019-04-03T17:30:18.303Z,11.30
2019-04-03T17:32:47.115Z,13.45
2019-04-03T17:35:16.255Z,13.48
2019-04-03T17:37:44.797Z,11.73
2019-04-03T17:40:13.073Z,13.70
2019-04-03T17:42:41.292Z,11.30
2019-04-03T17:45:09.625Z,12.28
2019-04-03T17:47:37.859Z,11.38
2019-04-03T17:50:06.922Z,10.43
2019-04-03T17:52:36.361Z,11.45
2019-04-03T17:55:09.869Z,10.82
2019-04-03T17:57:39.004Z,14.38
2019-04-03T18:00:10.345Z,14.80
2019-04-03T18:02:38.589Z,15.13
2019-04-03T18:05:07.395Z,14.20
2019-04-03T18:07:37.085Z,14.07
2019-04-03T18:10:09.121Z,10.95
2019-04-03T18:12:36.809Z,11.78
2019-04-03T18:15:07.444Z,14.25
2019-04-03T18:17:35.839Z,11.65
2019-04-03T18:20:05.320Z,16.45
2019-04-03T18:22:33.523Z,11.25
2019-04-03T18:25:01.871Z,11.53
2019-04-03T18:27:33.231Z,13.55
2019-04-03T18:30:00.307Z,12.25
2019-04-03T18:32:29.829Z,14.10
2019-04-03T18:34:58.378Z,12.88
2019-04-03T18:37:26.652Z,13.30
2019-04-03T18:39:54.885Z,13.85
2019-04-03T18:42:23.108Z,12.73
2019-04-03T18:44:52.517Z,14.20
2019-04-03T18:47:20.754Z,13.75
2019-04-03T18:49:49.031Z,12.88
2019-04-03T18:52:17.272Z,13.85
2019-04-03T18:54:45.694Z,11.43
2019-04-03T18:57:15.011Z,12.55
2019-04-03T18:59:43.929Z,13.38
2019-04-03T19:02:12.158Z,14.28
2019-04-03T19:04:40.391Z,16.52
2019-04-03T19:07:09.020Z,16.20
2019-04-03T19:09:37.261Z,16.73
2019-04-03T19:12:08.629Z,15.63
2019-04-03T19:14:36.633Z,32.38
2019-04-03T19:17:04.876Z,16.52
2019-04-03T19:19:33.712Z,15.15
2019-04-03T19:22:02.071Z,14.43
2019-04-03T19:24:30.344Z,15.28
2019-04-03T19:26:58.591Z,15.55
2019-04-03T19:29:26.813Z,14.23
2019-04-03T19:31:55.623Z,15.03
2019-04-03T19:34:23.952Z,14.07
2019-04-03T19:36:52.409Z,19.12
2019-04-03T19:39:20.715Z,15.23
2019-04-03T19:41:48.963Z,18.05
2019-04-03T19:44:18.072Z,16.48
2019-04-03T19:46:47.028Z,15.83
2019-04-03T19:49:15.249Z,19.25
2019-04-03T19:51:43.483Z,16.93
2019-04-03T19:54:11.708Z,16.75
2019-04-03T19:56:39.957Z,17.25
2019-04-03T19:59:08.230Z,17.98
2019-04-03T20:01:38.783Z,16.82
2019-04-03T20:04:06.666Z,18.42
2019-04-03T20:06:35.093Z,18.32
2019-04-03T20:09:05.334Z,19.52
2019-04-03T20:11:34.170Z,18.95
2019-04-03T20:14:03.561Z,18.12
2019-04-03T20:16:31.773Z,19.50
2019-04-03T20:19:00.022Z,22.32
2019-04-03T20:21:28.239Z,18.75
2019-04-03T20:23:56.491Z,20.50
2019-04-03T20:26:24.726Z,19.77
2019-04-03T20:28:52.977Z,26.42
2019-04-03T20:31:21.220Z,24.87
2019-04-03T20:33:49.490Z,22.93
2019-04-03T20:36:18.500Z,25.92
2019-04-03T20:38:47.690Z,27.82
2019-04-03T20:41:15.953Z,21.52
2019-04-03T20:43:47.160Z,26.77
2019-04-03T20:46:14.232Z,20.72
2019-04-03T20:48:42.462Z,23.85
2019-04-03T20:51:10.708Z,24.47
2019-04-03T20:53:38.975Z,25.97
2019-04-03T20:56:07.384Z,23.92
2019-04-03T20:58:35.788Z,29.55
2019-04-03T21:01:06.865Z,27.60
2019-04-03T21:03:34.082Z,26.90
2019-04-03T21:06:02.314Z,28.12
2019-04-03T21:08:31.683Z,25.43
2019-04-03T21:11:02.294Z,27.75
2019-04-03T21:13:30.181Z,27.35
2019-04-03T21:15:58.516Z,27.35
2019-04-03T21:18:26.748Z,30.55
2019-04-03T21:20:55.332Z,29.12
2019-04-03T21:23:23.713Z,24.80
2019-04-03T21:25:52.001Z,28.07
2019-04-03T21:28:20.223Z,27.45
2019-04-03T21:30:48.461Z,30.12
2019-04-03T21:33:17.431Z,29.18
2019-04-03T21:35:45.973Z,27.73
2019-04-03T21:38:14.392Z,28.67
2019-04-03T21:40:42.630Z,27.87
2019-04-03T21:43:11.523Z,26.35
2019-04-03T21:45:39.763Z,26.52
2019-04-03T21:48:08.313Z,31.10
2019-04-03T21:50:36.566Z,26.87
2019-04-03T21:53:04.786Z,28.83
2019-04-03T21:55:34.739Z,30.85
2019-04-03T21:58:03.158Z,32.53
2019-04-03T22:00:58.872Z,30.37
2019-04-03T22:03:27.127Z,26.48
2019-04-03T22:05:56.066Z,31.05
2019-04-03T22:08:24.989Z,22.10
2019-04-03T22:10:53.204Z,29.05
2019-04-03T22:13:21.494Z,24.80
2019-04-03T22:15:49.841Z,28.15
2019-04-03T22:18:18.142Z,31.65
2019-04-03T22:20:46.366Z,35.95
2019-04-03T22:23:14.640Z,28.35
2019-04-03T22:25:42.868Z,33.10
2019-04-03T22:28:13.209Z,26.95
2019-04-03T22:30:41.219Z,34.65
2019-04-03T22:33:09.512Z,31.23
2019-04-03T22:35:38.102Z,33.85
2019-04-03T22:38:06.366Z,32.30
2019-04-03T22:40:34.656Z,30.02
2019-04-03T22:43:02.886Z,32.63
2019-04-03T22:45:31.142Z,30.08
2019-04-03T22:47:59.545Z,38.95
2019-04-03T22:50:27.824Z,30.97
2019-04-03T22:52:56.060Z,27.95
2019-04-03T22:55:24.281Z,35.23
2019-04-03T22:57:53.129Z,36.35
2019-04-03T23:00:21.347Z,41.18
2019-04-03T23:02:49.780Z,37.55
2019-04-03T23:05:18.036Z,39.85
2019-04-03T23:07:46.262Z,40.50
2019-04-03T23:10:14.496Z,35.43
2019-04-03T23:12:42.721Z,42.55
2019-04-03T23:15:11.067Z,38.92
2019-04-03T23:17:45.435Z,32.30
2019-04-03T23:20:16.899Z,36.30
2019-04-03T23:22:45.147Z,44.10
2019-04-03T23:25:13.558Z,35.50
2019-04-03T23:27:41.784Z,39.05
2019-04-03T23:30:10.885Z,43.98
2019-04-03T23:32:39.446Z,36.95
2019-04-03T23:35:08.296Z,34.08
2019-04-03T23:37:36.701Z,43.78
2019-04-03T23:40:05.878Z,43.60
2019-04-03T23:42:34.144Z,39.53
2019-04-03T23:45:02.381Z,48.60
2019-04-03T23:47:31.650Z,48.65
2019-04-03T23:49:59.881Z,39.38
2019-04-03T23:52:29.966Z,45.20
2019-04-03T23:54:58.099Z,39.85
2019-04-03T23:57:26.358Z,43.45
2019-04-03T23:59:54.587Z,41.08
